Time;durP1;ratioP1;P1;durP2;ratioP2;P2;SDS_P1;SDS_P2;PMS_P1;PMS_P2;Temp;Humidity;BMP_temperature;BMP_pressure;BME280_temperature;BME280_humidity;BME280_pressure;Samples;Min_cycle;Max_cycle;Signal;HPM_P1;HPM_P2
2021/01/13 00:01:47;;;;;;;13.50;4.30;;;3.30;99.90;;;;;;5093448;28;20604;-78
2021/01/13 00:04:13;;;;;;;16.80;4.83;;;3.30;99.90;;;;;;5093078;28;20563;-78
2021/01/13 00:06:40;;;;;;;18.17;4.57;;;3.30;99.90;;;;;;5092701;28;20727;-77
2021/01/13 00:09:06;;;;;;;16.67;5.10;;;3.20;99.90;;;;;;5093250;28;20195;-78
2021/01/13 00:11:33;;;;;;;25.57;5.73;;;3.20;99.90;;;;;;5093313;28;20210;-78
2021/01/13 00:14:00;;;;;;;14.53;5.57;;;3.10;99.90;;;;;;5093074;28;20280;-78
2021/01/13 00:16:26;;;;;;;15.97;5.80;;;3.10;99.90;;;;;;5093280;28;20401;-78
2021/01/13 00:18:52;;;;;;;16.07;5.90;;;3.00;99.90;;;;;;5105090;28;20621;-78
2021/01/13 00:21:19;;;;;;;15.67;6.73;;;3.00;99.90;;;;;;5108147;28;20218;-78
2021/01/13 00:23:45;;;;;;;27.47;6.90;;;3.00;99.90;;;;;;5111421;28;20195;-77
2021/01/13 00:26:18;;;;;;;22.80;6.37;;;2.90;99.90;;;;;;5108242;28;20202;-78
2021/01/13 00:28:45;;;;;;;14.10;5.27;;;2.80;99.90;;;;;;5111246;28;20202;-78
2021/01/13 00:31:13;;;;;;;17.50;6.17;;;2.80;99.90;;;;;;5097661;28;20663;-78
2021/01/13 00:33:39;;;;;;;16.20;6.17;;;2.80;99.90;;;;;;5093738;28;20212;-77
2021/01/13 00:36:06;;;;;;;17.13;5.87;;;2.70;99.90;;;;;;5093451;28;20195;-78
2021/01/13 00:38:33;;;;;;;15.90;6.10;;;2.70;99.90;;;;;;5093714;28;20199;-77
2021/01/13 00:40:59;;;;;;;25.10;6.20;;;2.80;99.90;;;;;;5093893;28;20313;-77
2021/01/13 00:43:25;;;;;;;17.90;6.23;;;2.80;99.90;;;;;;5093385;28;20291;-77
2021/01/13 00:45:52;;;;;;;15.70;6.37;;;2.80;99.90;;;;;;5093924;28;20230;-77
2021/01/13 00:48:19;;;;;;;18.10;5.77;;;2.70;99.90;;;;;;5093512;28;20209;-77
2021/01/13 00:50:45;;;;;;;12.73;5.67;;;2.70;99.90;;;;;;5107852;28;20196;-77
2021/01/13 00:53:12;;;;;;;15.73;5.83;;;2.70;99.90;;;;;;5093381;28;20548;-78
2021/01/13 00:55:38;;;;;;;16.73;6.53;;;2.70;99.90;;;;;;5093525;28;20256;-78
2021/01/13 00:58:04;;;;;;;13.60;6.23;;;2.70;99.90;;;;;;5093465;28;20210;-78
2021/01/13 01:00:30;;;;;;;19.03;6.37;;;2.60;99.90;;;;;;5093024;28;20672;-78
2021/01/13 01:02:58;;;;;;;15.70;6.70;;;2.60;99.90;;;;;;5093325;28;20226;-78
2021/01/13 01:05:24;;;;;;;23.57;7.23;;;2.60;99.90;;;;;;5092856;28;20195;-78
2021/01/13 01:07:50;;;;;;;15.97;7.03;;;2.60;99.90;;;;;;5093484;28;20287;-78
2021/01/13 01:10:20;;;;;;;20.90;6.93;;;2.50;99.90;;;;;;5093055;28;20576;-78
2021/01/13 01:12:47;;;;;;;17.60;7.00;;;2.50;99.90;;;;;;5092876;28;20333;-78
2021/01/13 01:15:14;;;;;;;21.93;7.83;;;2.50;99.90;;;;;;5092937;28;20227;-77
2021/01/13 01:17:40;;;;;;;16.20;7.17;;;2.40;99.90;;;;;;5091860;28;20197;-78
2021/01/13 01:20:09;;;;;;;21.17;7.57;;;2.40;99.90;;;;;;5092950;28;20571;-78
2021/01/13 01:22:35;;;;;;;21.57;7.93;;;2.40;99.90;;;;;;5093092;28;20248;-78
2021/01/13 01:25:01;;;;;;;19.20;6.50;;;2.40;99.90;;;;;;5093624;28;20294;-78
2021/01/13 01:27:28;;;;;;;20.57;7.33;;;2.40;99.90;;;;;;5093172;28;20196;-78
2021/01/13 01:29:54;;;;;;;18.23;8.03;;;2.40;99.90;;;;;;5106017;28;20223;-78
2021/01/13 01:32:20;;;;;;;23.63;7.37;;;2.40;99.90;;;;;;5094120;28;20288;-77
2021/01/13 01:34:46;;;;;;;18.70;7.70;;;2.40;99.90;;;;;;5092821;28;20233;-77
2021/01/13 01:37:14;;;;;;;19.97;7.93;;;2.40;99.90;;;;;;5093375;28;20291;-77
2021/01/13 01:39:40;;;;;;;22.70;8.10;;;2.40;99.90;;;;;;5092823;28;20199;-77
2021/01/13 01:42:06;;;;;;;16.90;6.83;;;2.30;99.90;;;;;;5092891;28;20240;-77
2021/01/13 01:44:33;;;;;;;21.53;8.00;;;2.30;99.90;;;;;;5092768;28;20215;-77
2021/01/13 01:47:05;;;;;;;21.67;7.17;;;2.30;99.90;;;;;;5092424;28;20676;-77
2021/01/13 01:49:32;;;;;;;21.40;7.60;;;2.20;99.90;;;;;;5092964;28;20207;-77
2021/01/13 01:52:08;;;;;;;18.77;8.20;;;2.20;99.90;;;;;;5092371;28;20671;-78
2021/01/13 01:54:38;;;;;;;17.00;7.63;;;2.30;99.90;;;;;;5092697;28;20700;-77
2021/01/13 01:57:10;;;;;;;20.87;7.90;;;2.20;99.90;;;;;;5092889;28;20279;-77
2021/01/13 01:59:46;;;;;;;24.50;8.67;;;2.30;99.90;;;;;;5092497;28;20644;-77
2021/01/13 02:02:17;;;;;;;17.87;7.77;;;2.30;99.90;;;;;;5092854;28;20199;-77
2021/01/13 02:04:45;;;;;;;22.50;7.87;;;2.30;99.90;;;;;;5092716;28;20197;-77
2021/01/13 02:07:31;;;;;;;16.47;8.13;;;2.20;99.90;;;;;;5092500;28;20207;-77
2021/01/13 02:10:00;;;;;;;18.37;8.13;;;2.30;99.90;;;;;;5092625;28;20204;-78
2021/01/13 02:12:31;;;;;;;20.40;7.90;;;2.20;99.90;;;;;;5092585;28;20202;-77
2021/01/13 02:14:59;;;;;;;27.43;7.80;;;2.20;99.90;;;;;;5092709;28;20231;-78
2021/01/13 02:17:34;;;;;;;22.90;8.43;;;2.20;99.90;;;;;;5092636;28;20206;-77
2021/01/13 02:20:07;;;;;;;19.10;8.23;;;2.20;99.90;;;;;;5092908;28;20199;-77
2021/01/13 02:22:57;;;;;;;19.63;7.37;;;2.20;99.90;;;;;;5092278;28;20209;-78
2021/01/13 02:26:06;;;;;;;21.30;7.47;;;2.20;99.90;;;;;;5093094;28;20295;-77
2021/01/13 02:28:49;;;;;;;16.03;7.07;;;2.20;99.90;;;;;;5094117;28;20197;-77
2021/01/13 02:31:41;;;;;;;12.27;6.07;;;2.20;99.90;;;;;;5096824;28;20202;-77
2021/01/13 02:34:18;;;;;;;23.90;7.00;;;2.10;99.90;;;;;;5096538;28;20252;-77
2021/01/13 02:37:08;;;;;;;19.60;7.00;;;2.20;99.90;;;;;;5108765;28;20656;-77
2021/01/13 02:39:39;;;;;;;11.30;6.47;;;2.20;99.90;;;;;;5092943;28;20244;-77
2021/01/13 02:42:09;;;;;;;26.17;8.67;;;2.20;99.90;;;;;;5116409;28;20647;-77
2021/01/13 02:44:50;;;;;;;17.17;8.13;;;2.20;99.90;;;;;;5116128;28;20611;-77
2021/01/13 02:47:26;;;;;;;23.03;8.90;;;2.20;99.90;;;;;;5116253;28;20202;-77
2021/01/13 02:49:55;;;;;;;17.33;8.27;;;2.10;99.90;;;;;;5116177;28;20238;-77
2021/01/13 02:52:24;;;;;;;15.97;7.83;;;2.20;99.90;;;;;;5116313;28;20199;-77
2021/01/13 02:54:55;;;;;;;17.47;7.97;;;2.20;99.90;;;;;;5115750;28;20692;-77
2021/01/13 02:57:26;;;;;;;17.27;8.07;;;2.20;99.90;;;;;;5116123;28;20333;-77
2021/01/13 02:59:56;;;;;;;23.07;8.37;;;2.20;99.90;;;;;;5115961;28;20205;-77
2021/01/13 03:02:35;;;;;;;21.20;7.37;;;2.20;99.90;;;;;;5115866;28;20244;-77
2021/01/13 03:05:01;;;;;;;19.00;8.03;;;2.30;99.90;;;;;;5115839;28;20210;-77
2021/01/13 03:07:35;;;;;;;15.40;7.77;;;2.30;99.90;;;;;;5116027;28;20294;-77
2021/01/13 03:10:09;;;;;;;15.77;7.20;;;2.30;99.90;;;;;;5115212;28;20251;-77
2021/01/13 03:12:40;;;;;;;16.10;7.43;;;2.30;99.90;;;;;;5115465;28;20206;-77
2021/01/13 03:15:08;;;;;;;16.27;6.87;;;2.30;99.90;;;;;;5115477;28;20315;-77
2021/01/13 03:17:51;;;;;;;16.03;7.40;;;2.20;99.90;;;;;;5115736;28;20200;-77
2021/01/13 03:20:26;;;;;;;17.17;7.00;;;2.20;99.90;;;;;;5115665;28;20200;-77
2021/01/13 03:23:02;;;;;;;21.20;7.67;;;2.30;99.90;;;;;;5115502;28;20231;-77
2021/01/13 03:25:35;;;;;;;20.23;7.43;;;2.30;99.90;;;;;;5115661;28;20336;-77
2021/01/13 03:28:02;;;;;;;19.83;7.60;;;2.30;99.90;;;;;;5116083;28;20199;-77
2021/01/13 03:30:31;;;;;;;14.60;7.03;;;2.30;99.90;;;;;;5115626;28;20206;-77
2021/01/13 03:33:11;;;;;;;15.33;7.13;;;2.30;99.90;;;;;;5115372;28;20251;-77
2021/01/13 03:35:41;;;;;;;21.23;7.63;;;2.30;99.90;;;;;;5114906;28;20231;-77
2021/01/13 03:38:13;;;;;;;16.67;6.83;;;2.30;99.90;;;;;;5115271;28;20316;-77
2021/01/13 03:40:42;;;;;;;15.87;7.27;;;2.30;99.90;;;;;;5114263;28;20200;-77
2021/01/13 03:43:20;;;;;;;18.60;7.50;;;2.40;99.90;;;;;;5115257;28;20215;-77
2021/01/13 03:45:50;;;;;;;18.40;6.47;;;2.40;99.90;;;;;;5114997;28;20205;-77
2021/01/13 03:48:45;;;;;;;18.70;6.80;;;2.40;99.90;;;;;;5114849;28;20207;-77
2021/01/13 03:51:39;;;;;;;20.07;7.90;;;2.40;99.90;;;;;;5115090;28;20194;-77
2021/01/13 03:54:07;;;;;;;19.03;7.03;;;2.40;99.90;;;;;;5114762;28;20320;-77
2021/01/13 03:56:55;;;;;;;20.70;6.87;;;2.40;99.90;;;;;;5114792;28;20651;-77
2021/01/13 03:59:37;;;;;;;14.30;6.17;;;2.40;99.90;;;;;;5114507;28;20198;-77
2021/01/13 04:02:06;;;;;;;18.97;7.23;;;2.50;99.90;;;;;;5114690;28;20203;-77
2021/01/13 04:04:45;;;;;;;17.57;7.43;;;2.50;99.90;;;;;;5114478;28;20198;-77
2021/01/13 04:07:14;;;;;;;13.97;5.30;;;2.50;99.90;;;;;;5114529;28;20711;-77
2021/01/13 04:09:42;;;;;;;23.10;6.40;;;2.50;99.90;;;;;;5114483;28;20199;-77
2021/01/13 04:12:11;;;;;;;21.13;7.23;;;2.50;99.90;;;;;;5114774;28;20204;-77
2021/01/13 04:14:49;;;;;;;15.00;7.17;;;2.50;99.90;;;;;;5114252;28;20305;-77
2021/01/13 04:17:18;;;;;;;20.20;6.83;;;2.60;99.90;;;;;;5114384;28;20202;-77
2021/01/13 04:19:46;;;;;;;20.20;7.17;;;2.60;99.90;;;;;;5114333;28;20229;-77
2021/01/13 04:22:13;;;;;;;18.63;6.93;;;2.60;99.90;;;;;;5114532;28;20263;-77
2021/01/13 04:24:41;;;;;;;18.00;7.00;;;2.60;99.90;;;;;;5114009;28;20236;-77
2021/01/13 04:27:10;;;;;;;13.80;7.10;;;2.70;99.90;;;;;;5114462;28;20278;-77
2021/01/13 04:29:37;;;;;;;19.03;6.30;;;2.70;99.90;;;;;;5114327;28;20220;-77
2021/01/13 04:32:04;;;;;;;15.90;6.50;;;2.70;99.90;;;;;;5113876;28;20251;-77
2021/01/13 04:34:32;;;;;;;14.43;5.60;;;2.60;99.90;;;;;;5114323;28;20218;-77
2021/01/13 04:37:00;;;;;;;13.80;6.07;;;2.60;99.90;;;;;;5114213;28;20206;-77
2021/01/13 04:39:27;;;;;;;18.37;5.83;;;2.60;99.90;;;;;;5114207;28;20198;-77
2021/01/13 04:42:02;;;;;;;13.63;7.03;;;2.60;99.90;;;;;;5113609;28;20664;-77
2021/01/13 04:44:32;;;;;;;18.87;7.60;;;2.60;99.90;;;;;;5113557;28;20299;-77
2021/01/13 04:47:07;;;;;;;22.23;7.60;;;2.60;99.90;;;;;;5114142;28;20202;-77
2021/01/13 04:49:37;;;;;;;18.13;7.77;;;2.60;99.90;;;;;;5100149;28;20671;-77
2021/01/13 04:52:06;;;;;;;29.17;7.50;;;2.60;99.90;;;;;;5113714;28;20199;-77
2021/01/13 04:54:37;;;;;;;19.23;7.00;;;2.50;99.90;;;;;;5113581;28;20310;-77
2021/01/13 04:57:57;;;;;;;17.33;6.97;;;2.50;99.90;;;;;;5113676;28;20227;-77
2021/01/13 05:00:46;;;;;;;15.30;7.73;;;2.50;99.90;;;;;;5113948;28;20563;-77
2021/01/13 05:03:42;;;;;;;21.47;7.80;;;2.50;99.90;;;;;;5113655;28;20200;-77
2021/01/13 05:06:49;;;;;;;18.87;8.27;;;2.50;99.90;;;;;;5113638;28;20206;-77
2021/01/13 05:09:16;;;;;;;19.23;8.13;;;2.50;99.90;;;;;;5113594;28;20294;-78
2021/01/13 05:11:44;;;;;;;19.63;7.83;;;2.50;99.90;;;;;;5113672;28;20206;-77
2021/01/13 05:14:11;;;;;;;17.23;7.87;;;2.50;99.90;;;;;;5114562;28;20219;-77
2021/01/13 05:17:03;;;;;;;16.67;8.13;;;2.50;99.90;;;;;;5114005;28;20199;-77
2021/01/13 05:20:05;;;;;;;21.15;8.75;;;2.50;99.90;;;;;;5113712;28;20513;-77
2021/01/13 05:22:34;;;;;;;20.33;8.50;;;2.60;99.90;;;;;;5088532;28;20210;-77
2021/01/13 05:25:04;;;;;;;14.03;8.20;;;2.60;99.90;;;;;;5109286;28;20234;-77
2021/01/13 05:27:58;;;;;;;23.93;8.37;;;2.60;99.90;;;;;;5113387;28;20209;-77
2021/01/13 05:30:30;;;;;;;17.70;7.97;;;2.70;99.90;;;;;;5113495;28;20231;-77
2021/01/13 05:32:57;;;;;;;18.43;7.47;;;2.70;99.90;;;;;;5113405;28;20202;-77
2021/01/13 05:35:29;;;;;;;20.30;9.03;;;2.70;99.90;;;;;;5111478;28;20254;-77
2021/01/13 05:38:06;;;;;;;19.73;8.60;;;2.70;99.90;;;;;;5113392;28;20207;-77
2021/01/13 05:40:39;;;;;;;18.33;8.63;;;2.70;99.90;;;;;;5099427;28;20287;-78
2021/01/13 05:43:07;;;;;;;17.90;8.70;;;2.70;99.90;;;;;;5112178;28;20205;-77
2021/01/13 05:45:36;;;;;;;25.33;9.27;;;2.70;99.90;;;;;;5111851;28;20291;-78
2021/01/13 05:48:03;;;;;;;22.87;8.97;;;2.70;99.90;;;;;;5105622;28;20200;-77
2021/01/13 05:50:30;;;;;;;20.10;8.50;;;2.80;99.90;;;;;;5106526;28;20213;-78
2021/01/13 05:52:58;;;;;;;20.93;8.03;;;2.80;99.90;;;;;;5105015;28;20294;-78
2021/01/13 05:55:25;;;;;;;21.60;7.07;;;2.80;99.90;;;;;;5106966;28;20267;-78
2021/01/13 05:57:56;;;;;;;23.43;8.20;;;2.80;99.90;;;;;;5109884;28;20298;-77
2021/01/13 06:00:24;;;;;;;21.93;9.03;;;2.80;99.90;;;;;;5109923;28;20195;-78
2021/01/13 06:02:56;;;;;;;17.87;8.77;;;2.90;99.90;;;;;;5112671;28;20283;-78
2021/01/13 06:05:24;;;;;;;14.40;7.80;;;2.90;99.90;;;;;;5116521;28;20292;-77
2021/01/13 06:07:52;;;;;;;20.00;8.87;;;2.80;99.90;;;;;;5113884;28;20292;-77
2021/01/13 06:10:25;;;;;;;18.90;8.93;;;2.90;99.90;;;;;;5104410;28;20200;-77
2021/01/13 06:12:57;;;;;;;20.47;8.70;;;2.90;99.90;;;;;;5096475;28;20244;-78
2021/01/13 06:15:25;;;;;;;24.27;8.63;;;2.90;99.90;;;;;;5096442;28;20226;-77
2021/01/13 06:18:00;;;;;;;18.83;8.57;;;2.90;99.90;;;;;;5096384;28;20667;-78
2021/01/13 06:20:29;;;;;;;19.40;8.40;;;2.90;99.90;;;;;;5113072;28;20205;-78
2021/01/13 06:22:57;;;;;;;16.27;8.10;;;2.90;99.90;;;;;;5112396;28;20260;-79
2021/01/13 06:25:26;;;;;;;21.23;8.40;;;2.90;99.90;;;;;;5116450;28;20611;-78
2021/01/13 06:28:22;;;;;;;17.57;8.87;;;2.90;99.90;;;;;;5116150;28;20204;-78
2021/01/13 06:31:06;;;;;;;18.37;8.20;;;2.90;99.90;;;;;;5087667;28;20198;-78
2021/01/13 06:33:43;;;;;;;17.87;8.33;;;2.90;99.90;;;;;;5116100;28;20297;-78
2021/01/13 06:36:25;;;;;;;25.10;8.23;;;2.90;99.90;;;;;;5113074;28;20656;-77
2021/01/13 06:38:56;;;;;;;18.67;7.67;;;2.90;99.90;;;;;;5116581;28;20187;-77
2021/01/13 06:41:24;;;;;;;24.70;8.10;;;2.90;99.90;;;;;;5116717;28;20278;-77
2021/01/13 06:44:01;;;;;;;17.83;7.47;;;2.90;99.90;;;;;;5101213;28;20216;-77
2021/01/13 06:46:28;;;;;;;21.50;8.50;;;2.90;99.90;;;;;;5096195;28;20208;-77
2021/01/13 06:48:56;;;;;;;20.40;8.70;;;3.00;99.90;;;;;;5096106;28;20328;-77
2021/01/13 06:51:24;;;;;;;21.47;8.63;;;3.00;99.90;;;;;;5094882;28;20752;-78
2021/01/13 06:53:51;;;;;;;22.43;8.20;;;3.00;99.90;;;;;;5111748;28;20219;-77
2021/01/13 06:56:56;;;;;;;21.00;8.50;;;3.10;99.90;;;;;;5115850;28;20264;-77
2021/01/13 06:59:58;;;;;;;19.87;8.47;;;3.00;99.90;;;;;;5116181;28;20200;-77
2021/01/13 07:02:33;;;;;;;24.93;8.53;;;3.10;99.90;;;;;;5110330;28;20245;-77
2021/01/13 07:04:59;;;;;;;15.77;7.97;;;3.10;99.90;;;;;;5116288;28;20294;-78
2021/01/13 07:07:26;;;;;;;17.60;8.27;;;3.00;99.90;;;;;;5111344;28;20554;-78
2021/01/13 07:09:52;;;;;;;24.30;8.70;;;3.00;99.90;;;;;;5095070;28;20202;-77
2021/01/13 07:12:23;;;;;;;20.67;8.97;;;3.00;99.90;;;;;;5114601;28;20214;-77
2021/01/13 07:14:51;;;;;;;23.47;8.23;;;3.00;99.90;;;;;;5115581;28;20214;-78
2021/01/13 07:17:20;;;;;;;19.27;8.43;;;3.00;99.90;;;;;;5113683;28;20191;-78
2021/01/13 07:19:48;;;;;;;22.23;8.97;;;3.00;99.90;;;;;;5092917;28;20195;-78
2021/01/13 07:22:16;;;;;;;20.13;9.53;;;3.10;99.90;;;;;;5095039;28;20268;-77
2021/01/13 07:24:43;;;;;;;22.10;8.23;;;3.10;99.90;;;;;;5094756;28;20241;-78
2021/01/13 07:27:11;;;;;;;28.17;8.80;;;3.10;99.90;;;;;;5112943;28;20208;-78
2021/01/13 07:29:38;;;;;;;22.20;7.93;;;3.10;99.90;;;;;;5115560;28;20202;-78
2021/01/13 07:32:06;;;;;;;19.10;8.97;;;3.10;99.90;;;;;;5102490;28;20224;-78
2021/01/13 07:34:35;;;;;;;17.27;8.77;;;3.20;99.90;;;;;;5115006;28;20216;-78
2021/01/13 07:37:04;;;;;;;30.03;9.60;;;3.30;99.90;;;;;;5115140;28;20191;-77
2021/01/13 07:40:13;;;;;;;18.67;8.40;;;3.30;99.90;;;;;;5115045;28;20207;-78
2021/01/13 07:42:41;;;;;;;19.47;8.90;;;3.30;99.90;;;;;;5115370;28;20201;-78
2021/01/13 07:45:09;;;;;;;24.27;9.20;;;3.20;99.90;;;;;;5114224;28;20250;-78
2021/01/13 07:48:23;;;;;;;26.77;7.73;;;3.20;99.90;;;;;;5114992;28;20220;-78
2021/01/13 07:50:52;;;;;;;26.10;8.73;;;3.20;99.90;;;;;;5114812;28;20716;-79
2021/01/13 07:53:26;;;;;;;21.20;8.30;;;3.20;99.90;;;;;;5114573;28;20286;-79
2021/01/13 07:55:58;;;;;;;20.57;9.00;;;3.30;99.90;;;;;;5114604;28;20219;-78
2021/01/13 07:58:28;;;;;;;23.17;9.47;;;3.20;99.90;;;;;;5112171;28;20199;-78
2021/01/13 08:01:39;;;;;;;18.57;9.03;;;3.30;99.90;;;;;;5113605;28;20191;-79
2021/01/13 08:04:41;;;;;;;18.97;8.90;;;3.30;99.90;;;;;;5100880;28;20276;-78
2021/01/13 08:07:15;;;;;;;20.13;8.83;;;3.30;99.90;;;;;;5098776;28;20271;-79
2021/01/13 08:09:48;;;;;;;19.90;8.97;;;3.30;99.90;;;;;;5108428;28;20268;-77
2021/01/13 08:12:56;;;;;;;21.00;9.67;;;3.30;99.90;;;;;;5113315;28;20254;-79
2021/01/13 08:16:06;;;;;;;20.87;9.73;;;3.30;99.90;;;;;;5054738;28;20213;-78
2021/01/13 08:19:32;;;;;;;22.13;9.73;;;3.30;99.90;;;;;;5112390;28;20202;-79
2021/01/13 08:22:01;;;;;;;18.37;9.30;;;3.40;99.90;;;;;;5113012;28;20192;-79
2021/01/13 08:24:31;;;;;;;21.03;9.97;;;3.40;99.90;;;;;;5112960;28;20196;-79
2021/01/13 08:27:01;;;;;;;22.90;10.30;;;3.40;99.90;;;;;;5112253;28;20240;-78
2021/01/13 08:29:34;;;;;;;20.90;10.17;;;3.40;99.90;;;;;;5113413;28;20546;-79
2021/01/13 08:32:05;;;;;;;17.03;8.70;;;3.40;99.90;;;;;;5112640;28;20199;-77
2021/01/13 08:34:37;;;;;;;25.33;10.90;;;3.40;99.90;;;;;;5112898;28;20259;-79
2021/01/13 08:37:04;;;;;;;19.20;9.70;;;3.50;99.90;;;;;;5107732;28;20192;-77
2021/01/13 08:39:33;;;;;;;20.80;10.00;;;3.50;99.90;;;;;;5083934;28;20208;-79
2021/01/13 08:42:21;;;;;;;24.43;9.83;;;3.60;99.90;;;;;;5107107;28;20281;-76
2021/01/13 08:44:48;;;;;;;17.43;8.70;;;3.60;99.90;;;;;;5107026;28;20693;-76
2021/01/13 08:47:15;;;;;;;28.20;10.20;;;3.50;99.90;;;;;;5103543;28;20759;-79
2021/01/13 08:49:42;;;;;;;24.87;10.10;;;3.60;99.90;;;;;;5106155;28;20195;-79
2021/01/13 08:52:16;;;;;;;22.80;9.77;;;3.50;99.90;;;;;;5109183;28;20555;-79
2021/01/13 08:54:45;;;;;;;21.77;9.70;;;3.60;99.90;;;;;;5105040;28;20211;-79
2021/01/13 08:57:13;;;;;;;19.23;9.07;;;3.60;99.90;;;;;;5106155;28;20271;-78
2021/01/13 08:59:41;;;;;;;18.23;9.10;;;3.70;99.90;;;;;;5111218;28;20251;-79
2021/01/13 09:02:11;;;;;;;28.83;10.00;;;3.70;99.90;;;;;;5109958;28;20202;-78
2021/01/13 09:04:56;;;;;;;24.20;9.80;;;3.80;99.90;;;;;;5109449;28;20215;-78
2021/01/13 09:07:24;;;;;;;27.37;9.33;;;3.80;99.90;;;;;;5110075;28;20278;-78
2021/01/13 09:09:59;;;;;;;25.77;9.20;;;3.80;99.90;;;;;;5108418;28;20230;-78
2021/01/13 09:12:37;;;;;;;22.47;7.90;;;3.80;99.90;;;;;;5110617;28;20191;-78
2021/01/13 09:15:30;;;;;;;19.63;8.13;;;3.90;99.90;;;;;;5111055;28;20309;-76
2021/01/13 09:17:58;;;;;;;17.07;8.60;;;4.00;99.90;;;;;;5109478;28;20235;-78
2021/01/13 09:20:28;;;;;;;20.20;8.53;;;4.10;99.90;;;;;;5110046;28;20281;-78
2021/01/13 09:22:57;;;;;;;17.57;7.80;;;4.10;99.90;;;;;;5109775;28;20299;-78
2021/01/13 09:25:26;;;;;;;20.17;7.93;;;4.10;99.90;;;;;;5109421;28;20199;-78
2021/01/13 09:27:54;;;;;;;16.30;7.00;;;4.20;99.90;;;;;;5111222;28;20633;-78
2021/01/13 09:30:33;;;;;;;19.80;7.47;;;4.30;99.90;;;;;;5111381;28;20192;-78
2021/01/13 09:33:01;;;;;;;13.23;6.80;;;4.20;99.90;;;;;;5111445;28;20712;-79
2021/01/13 09:35:29;;;;;;;17.53;6.10;;;4.30;99.90;;;;;;5080167;28;20226;-79
2021/01/13 09:37:57;;;;;;;21.23;7.13;;;4.40;99.90;;;;;;5093404;28;20200;-78
2021/01/13 09:40:56;;;;;;;15.30;5.93;;;4.50;99.90;;;;;;5110394;28;20283;-79
2021/01/13 09:43:34;;;;;;;16.60;6.43;;;4.60;99.90;;;;;;5112879;28;20727;-79
2021/01/13 09:46:03;;;;;;;18.17;6.80;;;4.70;99.90;;;;;;5115812;28;20289;-78
2021/01/13 09:48:30;;;;;;;14.80;6.07;;;4.70;99.90;;;;;;5116080;28;20583;-79
2021/01/13 09:51:03;;;;;;;16.53;6.30;;;4.70;99.90;;;;;;5114971;28;20203;-77
2021/01/13 09:53:32;;;;;;;20.60;5.80;;;4.70;99.90;;;;;;5114082;28;20279;-78
2021/01/13 09:56:05;;;;;;;17.83;5.73;;;4.90;99.90;;;;;;5114981;28;20712;-78
2021/01/13 09:58:51;;;;;;;17.47;5.73;;;4.90;99.90;;;;;;5115609;28;20203;-78
2021/01/13 10:01:19;;;;;;;19.83;5.73;;;5.00;99.90;;;;;;5113463;28;20685;-77
2021/01/13 10:03:47;;;;;;;14.33;5.07;;;5.10;99.90;;;;;;5110701;28;20291;-78
2021/01/13 10:06:16;;;;;;;13.33;5.00;;;5.10;99.90;;;;;;5115409;28;20290;-78
2021/01/13 10:08:43;;;;;;;17.17;5.20;;;5.30;99.90;;;;;;5113857;28;20287;-78
2021/01/13 10:11:11;;;;;;;15.60;5.63;;;5.50;99.90;;;;;;5115277;28;20558;-78
2021/01/13 10:13:39;;;;;;;16.60;5.50;;;5.60;99.90;;;;;;5115492;28;20200;-78
2021/01/13 10:16:07;;;;;;;10.37;5.27;;;5.60;99.90;;;;;;5112832;28;20206;-79
2021/01/13 10:18:34;;;;;;;21.33;4.97;;;5.50;99.90;;;;;;5115256;28;20199;-79
2021/01/13 10:21:03;;;;;;;11.67;5.13;;;5.40;99.90;;;;;;5114654;28;20204;-78
2021/01/13 10:23:31;;;;;;;14.87;5.10;;;5.50;99.90;;;;;;5112504;28;20210;-78
2021/01/13 10:26:06;;;;;;;17.70;5.77;;;5.50;99.90;;;;;;5114013;28;20213;-78
2021/01/13 10:28:34;;;;;;;13.40;5.40;;;5.30;99.90;;;;;;5112508;28;20298;-78
2021/01/13 10:31:01;;;;;;;15.07;5.60;;;5.40;99.90;;;;;;5114359;28;20883;-77
2021/01/13 10:33:55;;;;;;;17.03;5.40;;;5.40;99.90;;;;;;5112197;28;20196;-78
2021/01/13 10:36:32;;;;;;;15.57;5.47;;;5.20;99.90;;;;;;5098743;28;20618;-78
2021/01/13 10:38:59;;;;;;;12.97;5.67;;;5.20;99.90;;;;;;5113261;28;20208;-78
2021/01/13 10:41:31;;;;;;;14.70;5.23;;;5.30;99.90;;;;;;5111237;28;20211;-77
2021/01/13 10:44:03;;;;;;;12.60;5.33;;;5.30;99.90;;;;;;5103447;28;20295;-78
2021/01/13 10:46:44;;;;;;;15.87;5.43;;;5.30;99.90;;;;;;5115119;28;20195;-78
2021/01/13 10:49:19;;;;;;;18.53;5.47;;;5.30;99.90;;;;;;5114342;28;20298;-77
2021/01/13 10:51:48;;;;;;;18.13;5.97;;;5.10;99.90;;;;;;5113304;28;20267;-78
2021/01/13 10:54:18;;;;;;;15.47;6.07;;;5.00;99.90;;;;;;5115462;28;20201;-77
2021/01/13 10:56:47;;;;;;;13.43;5.57;;;5.10;99.90;;;;;;5114542;28;20211;-78
2021/01/13 10:59:16;;;;;;;16.70;5.70;;;5.00;99.90;;;;;;5111762;28;20662;-79
2021/01/13 11:01:48;;;;;;;13.40;5.33;;;4.90;99.90;;;;;;5115895;28;20248;-79
2021/01/13 11:04:42;;;;;;;13.27;5.47;;;4.90;99.90;;;;;;5110819;28;20279;-79
2021/01/13 11:07:13;;;;;;;13.47;5.40;;;5.10;99.90;;;;;;5110483;28;20249;-78
2021/01/13 11:09:41;;;;;;;11.33;5.13;;;5.20;99.90;;;;;;5118591;28;20203;-80
2021/01/13 11:12:09;;;;;;;16.80;5.73;;;5.20;99.90;;;;;;5125317;28;20227;-79
2021/01/13 11:14:43;;;;;;;17.23;6.57;;;5.20;99.90;;;;;;5123917;28;20311;-79
2021/01/13 11:17:14;;;;;;;14.30;5.27;;;5.20;99.90;;;;;;5117927;28;20207;-79
2021/01/13 11:19:43;;;;;;;17.13;6.10;;;5.20;99.90;;;;;;5127605;28;20326;-79
2021/01/13 11:22:10;;;;;;;11.17;5.93;;;5.30;99.90;;;;;;5117306;28;20198;-78
2021/01/13 11:24:39;;;;;;;14.87;6.10;;;5.40;99.90;;;;;;5111116;28;20239;-76
2021/01/13 11:27:09;;;;;;;9.13;5.07;;;5.40;99.90;;;;;;5110746;28;20210;-78
2021/01/13 11:29:41;;;;;;;12.60;5.80;;;5.50;99.90;;;;;;5114003;28;20206;-78
2021/01/13 11:32:12;;;;;;;16.63;5.70;;;5.50;99.90;;;;;;5112975;28;20205;-78
2021/01/13 11:34:40;;;;;;;16.77;5.73;;;5.50;99.90;;;;;;5113557;28;20219;-77
2021/01/13 11:37:48;;;;;;;9.17;5.23;;;5.50;99.90;;;;;;5110810;28;20232;-76
2021/01/13 11:40:47;;;;;;;13.57;5.50;;;5.50;99.90;;;;;;5067774;28;20246;-77
2021/01/13 11:43:51;;;;;;;9.40;5.63;;;5.50;99.90;;;;;;5093907;28;20219;-77
2021/01/13 11:46:27;;;;;;;15.73;5.97;;;5.40;99.90;;;;;;5107882;28;20184;-75
2021/01/13 11:49:15;;;;;;;18.83;6.40;;;5.40;99.90;;;;;;5113633;28;20225;-75
2021/01/13 11:51:45;;;;;;;13.20;6.57;;;5.40;99.90;;;;;;5082630;28;20208;-75
2021/01/13 11:54:23;;;;;;;13.20;6.03;;;5.40;99.90;;;;;;5091808;28;20293;-75
2021/01/13 11:56:50;;;;;;;10.70;5.77;;;5.40;99.90;;;;;;5102501;28;20256;-75
2021/01/13 11:59:27;;;;;;;14.57;5.93;;;5.40;99.90;;;;;;5113640;28;20225;-75
2021/01/13 12:01:56;;;;;;;14.57;5.83;;;5.30;99.90;;;;;;5110247;28;20191;-75
2021/01/13 12:04:23;;;;;;;12.77;6.10;;;5.50;99.90;;;;;;5111124;28;20592;-76
2021/01/13 12:06:57;;;;;;;18.50;6.17;;;5.70;99.90;;;;;;5111596;28;20218;-76
2021/01/13 12:09:23;;;;;;;14.47;6.00;;;5.90;99.90;;;;;;5111390;28;20252;-76
2021/01/13 12:11:50;;;;;;;11.23;5.77;;;5.90;99.90;;;;;;5110472;28;20191;-76
2021/01/13 12:14:16;;;;;;;10.07;5.63;;;6.00;99.90;;;;;;5098126;28;20227;-75
2021/01/13 12:16:43;;;;;;;13.80;5.87;;;6.00;99.90;;;;;;5105439;28;20199;-76
2021/01/13 12:19:10;;;;;;;13.33;5.83;;;6.10;99.90;;;;;;5111114;28;20285;-76
2021/01/13 12:21:43;;;;;;;9.77;5.90;;;6.20;99.90;;;;;;5098330;28;20590;-75
2021/01/13 12:24:14;;;;;;;13.53;5.70;;;6.30;99.90;;;;;;5105010;28;20675;-76
2021/01/13 12:26:41;;;;;;;18.57;5.97;;;6.40;99.90;;;;;;5110757;28;20391;-76
2021/01/13 12:29:15;;;;;;;11.80;6.33;;;6.40;99.90;;;;;;5108922;28;20237;-76
2021/01/13 12:31:44;;;;;;;14.47;6.47;;;6.30;99.90;;;;;;5112932;28;21765;-76
2021/01/13 12:34:15;;;;;;;15.87;6.90;;;6.30;99.90;;;;;;5110289;28;20192;-76
2021/01/13 12:36:44;;;;;;;15.23;6.37;;;6.20;99.90;;;;;;5109548;28;20783;-75
2021/01/13 12:39:23;;;;;;;17.10;6.03;;;6.30;99.90;;;;;;5106215;28;20482;-75
2021/01/13 12:41:51;;;;;;;13.37;5.63;;;6.50;99.90;;;;;;5111957;28;20196;-76
2021/01/13 12:44:19;;;;;;;17.70;6.50;;;6.60;99.90;;;;;;5110088;28;20260;-75
2021/01/13 12:46:50;;;;;;;13.47;5.70;;;6.60;99.90;;;;;;5108871;28;20566;-75
2021/01/13 12:49:18;;;;;;;11.67;5.93;;;6.60;99.90;;;;;;5112486;28;20192;-76
2021/01/13 12:51:51;;;;;;;12.67;5.33;;;6.70;99.90;;;;;;5111011;28;20279;-76
2021/01/13 12:54:17;;;;;;;12.90;5.53;;;6.70;99.90;;;;;;5114031;28;20239;-76
2021/01/13 12:56:43;;;;;;;16.30;6.23;;;6.60;99.90;;;;;;5112048;28;20307;-76
2021/01/13 12:59:10;;;;;;;13.87;6.30;;;6.70;99.90;;;;;;5111629;28;20631;-76
2021/01/13 13:01:37;;;;;;;15.00;6.80;;;6.80;99.90;;;;;;5110586;28;20201;-75
2021/01/13 13:04:04;;;;;;;15.73;6.80;;;6.80;99.90;;;;;;5112277;28;20194;-76
2021/01/13 13:06:32;;;;;;;14.67;6.23;;;6.90;99.90;;;;;;5111672;28;20286;-76
2021/01/13 13:09:01;;;;;;;15.70;6.40;;;6.90;99.90;;;;;;5110600;28;20289;-76
2021/01/13 13:11:28;;;;;;;18.43;7.17;;;6.90;99.90;;;;;;5108889;28;20671;-75
2021/01/13 13:13:54;;;;;;;15.27;6.97;;;7.00;99.90;;;;;;5104359;28;20204;-75
2021/01/13 13:16:21;;;;;;;13.60;6.90;;;7.00;99.90;;;;;;5100872;28;20322;-76